sensor_id;sensor_type;location;lat;lon;timestamp;P1;durP1;ratioP1;P2;durP2;ratioP2
32399;SDS011;45045;45.440;9.178;2023-11-22T00:00:30;23.73;;;17.05;;
32399;SDS011;45045;45.440;9.178;2023-11-22T00:02:55;22.77;;;16.17;;
32399;SDS011;45045;45.440;9.178;2023-11-22T00:05:21;23.25;;;16.92;;
32399;SDS011;45045;45.440;9.178;2023-11-22T00:07:47;25.50;;;16.88;;
32399;SDS011;45045;45.440;9.178;2023-11-22T00:10:12;26.42;;;17.20;;
32399;SDS011;45045;45.440;9.178;2023-11-22T00:12:39;29.63;;;18.40;;
32399;SDS011;45045;45.440;9.178;2023-11-22T00:15:05;24.50;;;18.52;;
32399;SDS011;45045;45.440;9.178;2023-11-22T00:17:31;22.17;;;16.10;;
32399;SDS011;45045;45.440;9.178;2023-11-22T00:19:58;24.55;;;17.25;;
32399;SDS011;45045;45.440;9.178;2023-11-22T00:22:27;24.90;;;16.92;;
32399;SDS011;45045;45.440;9.178;2023-11-22T00:24:53;23.35;;;17.33;;
32399;SDS011;45045;45.440;9.178;2023-11-22T00:27:19;25.48;;;17.88;;
32399;SDS011;45045;45.440;9.178;2023-11-22T00:29:44;23.48;;;16.65;;
32399;SDS011;45045;45.440;9.178;2023-11-22T00:32:11;27.05;;;16.85;;
32399;SDS011;45045;45.440;9.178;2023-11-22T00:34:37;25.70;;;18.08;;
32399;SDS011;45045;45.440;9.178;2023-11-22T00:37:03;25.85;;;16.85;;
32399;SDS011;45045;45.440;9.178;2023-11-22T00:39:28;23.00;;;16.35;;
32399;SDS011;45045;45.440;9.178;2023-11-22T00:41:54;23.40;;;17.45;;
32399;SDS011;45045;45.440;9.178;2023-11-22T00:44:20;25.40;;;16.40;;
32399;SDS011;45045;45.440;9.178;2023-11-22T00:46:46;28.30;;;17.70;;
32399;SDS011;45045;45.440;9.178;2023-11-22T00:49:12;23.10;;;15.55;;
32399;SDS011;45045;45.440;9.178;2023-11-22T00:51:38;22.92;;;16.17;;
32399;SDS011;45045;45.440;9.178;2023-11-22T00:54:04;23.80;;;15.90;;
32399;SDS011;45045;45.440;9.178;2023-11-22T00:56:30;23.60;;;15.00;;
32399;SDS011;45045;45.440;9.178;2023-11-22T00:58:55;18.92;;;14.50;;
32399;SDS011;45045;45.440;9.178;2023-11-22T01:01:24;25.38;;;16.50;;
32399;SDS011;45045;45.440;9.178;2023-11-22T01:03:50;21.48;;;14.98;;
32399;SDS011;45045;45.440;9.178;2023-11-22T01:06:16;20.02;;;14.10;;
32399;SDS011;45045;45.440;9.178;2023-11-22T01:08:43;24.15;;;15.40;;
32399;SDS011;45045;45.440;9.178;2023-11-22T01:11:09;19.45;;;14.18;;
32399;SDS011;45045;45.440;9.178;2023-11-22T01:13:34;23.60;;;14.80;;
32399;SDS011;45045;45.440;9.178;2023-11-22T01:16:06;23.70;;;14.88;;
32399;SDS011;45045;45.440;9.178;2023-11-22T01:18:32;20.60;;;14.75;;
32399;SDS011;45045;45.440;9.178;2023-11-22T01:20:58;22.25;;;15.00;;
32399;SDS011;45045;45.440;9.178;2023-11-22T01:23:23;21.67;;;14.25;;
32399;SDS011;45045;45.440;9.178;2023-11-22T01:25:49;19.58;;;14.07;;
32399;SDS011;45045;45.440;9.178;2023-11-22T01:28:15;22.27;;;13.68;;
32399;SDS011;45045;45.440;9.178;2023-11-22T01:30:42;25.92;;;15.18;;
32399;SDS011;45045;45.440;9.178;2023-11-22T01:33:10;20.67;;;13.68;;
32399;SDS011;45045;45.440;9.178;2023-11-22T01:35:36;23.13;;;14.75;;
32399;SDS011;45045;45.440;9.178;2023-11-22T01:38:03;22.02;;;13.38;;
32399;SDS011;45045;45.440;9.178;2023-11-22T01:40:32;21.63;;;13.90;;
32399;SDS011;45045;45.440;9.178;2023-11-22T01:42:58;23.30;;;14.20;;
32399;SDS011;45045;45.440;9.178;2023-11-22T01:45:24;21.38;;;13.77;;
32399;SDS011;45045;45.440;9.178;2023-11-22T01:47:51;18.83;;;13.48;;
32399;SDS011;45045;45.440;9.178;2023-11-22T01:50:17;22.98;;;14.65;;
32399;SDS011;45045;45.440;9.178;2023-11-22T01:52:43;20.05;;;12.88;;
32399;SDS011;45045;45.440;9.178;2023-11-22T01:55:10;18.23;;;12.50;;
32399;SDS011;45045;45.440;9.178;2023-11-22T01:57:38;22.50;;;13.45;;
32399;SDS011;45045;45.440;9.178;2023-11-22T02:00:04;20.30;;;13.07;;
32399;SDS011;45045;45.440;9.178;2023-11-22T02:02:39;21.33;;;13.10;;
32399;SDS011;45045;45.440;9.178;2023-11-22T02:05:05;21.70;;;13.77;;
32399;SDS011;45045;45.440;9.178;2023-11-22T02:07:31;20.88;;;13.65;;
32399;SDS011;45045;45.440;9.178;2023-11-22T02:10:00;18.00;;;12.80;;
32399;SDS011;45045;45.440;9.178;2023-11-22T02:12:31;22.20;;;15.25;;
32399;SDS011;45045;45.440;9.178;2023-11-22T02:14:57;22.20;;;14.05;;
32399;SDS011;45045;45.440;9.178;2023-11-22T02:17:23;26.05;;;15.23;;
32399;SDS011;45045;45.440;9.178;2023-11-22T02:19:49;23.20;;;13.43;;
32399;SDS011;45045;45.440;9.178;2023-11-22T02:22:15;23.77;;;14.68;;
32399;SDS011;45045;45.440;9.178;2023-11-22T02:24:40;26.73;;;13.85;;
32399;SDS011;45045;45.440;9.178;2023-11-22T02:27:06;21.63;;;13.60;;
32399;SDS011;45045;45.440;9.178;2023-11-22T02:29:32;23.85;;;13.93;;
32399;SDS011;45045;45.440;9.178;2023-11-22T02:31:58;19.38;;;14.00;;
32399;SDS011;45045;45.440;9.178;2023-11-22T02:34:24;23.20;;;14.00;;
32399;SDS011;45045;45.440;9.178;2023-11-22T02:36:50;19.70;;;14.32;;
32399;SDS011;45045;45.440;9.178;2023-11-22T02:39:16;18.40;;;13.73;;
32399;SDS011;45045;45.440;9.178;2023-11-22T02:41:41;20.23;;;13.80;;
32399;SDS011;45045;45.440;9.178;2023-11-22T02:44:07;18.88;;;13.48;;
32399;SDS011;45045;45.440;9.178;2023-11-22T02:46:33;21.60;;;14.45;;
32399;SDS011;45045;45.440;9.178;2023-11-22T02:48:59;22.20;;;14.45;;
32399;SDS011;45045;45.440;9.178;2023-11-22T02:51:25;23.55;;;14.25;;
32399;SDS011;45045;45.440;9.178;2023-11-22T02:53:51;21.05;;;14.02;;
32399;SDS011;45045;45.440;9.178;2023-11-22T02:56:17;23.13;;;14.52;;
32399;SDS011;45045;45.440;9.178;2023-11-22T02:58:42;20.70;;;14.05;;
32399;SDS011;45045;45.440;9.178;2023-11-22T03:01:08;24.70;;;16.95;;
32399;SDS011;45045;45.440;9.178;2023-11-22T03:03:34;25.35;;;15.43;;
32399;SDS011;45045;45.440;9.178;2023-11-22T03:06:00;23.45;;;14.18;;
32399;SDS011;45045;45.440;9.178;2023-11-22T03:08:26;21.05;;;13.95;;
32399;SDS011;45045;45.440;9.178;2023-11-22T03:10:52;24.17;;;13.95;;
32399;SDS011;45045;45.440;9.178;2023-11-22T03:13:18;20.77;;;15.02;;
32399;SDS011;45045;45.440;9.178;2023-11-22T03:15:44;20.88;;;14.65;;
32399;SDS011;45045;45.440;9.178;2023-11-22T03:18:10;22.48;;;14.90;;
32399;SDS011;45045;45.440;9.178;2023-11-22T03:20:36;23.77;;;14.45;;
32399;SDS011;45045;45.440;9.178;2023-11-22T03:23:03;23.45;;;15.05;;
32399;SDS011;45045;45.440;9.178;2023-11-22T03:25:29;24.98;;;15.45;;
32399;SDS011;45045;45.440;9.178;2023-11-22T03:27:55;24.17;;;15.32;;
32399;SDS011;45045;45.440;9.178;2023-11-22T03:30:21;25.13;;;15.90;;
32399;SDS011;45045;45.440;9.178;2023-11-22T03:32:46;23.50;;;14.13;;
32399;SDS011;45045;45.440;9.178;2023-11-22T03:35:13;23.02;;;14.73;;
32399;SDS011;45045;45.440;9.178;2023-11-22T03:37:39;26.17;;;15.25;;
32399;SDS011;45045;45.440;9.178;2023-11-22T03:40:05;23.80;;;14.63;;
32399;SDS011;45045;45.440;9.178;2023-11-22T03:42:31;22.08;;;15.45;;
32399;SDS011;45045;45.440;9.178;2023-11-22T03:44:56;22.20;;;15.35;;
32399;SDS011;45045;45.440;9.178;2023-11-22T03:47:24;21.33;;;15.48;;
32399;SDS011;45045;45.440;9.178;2023-11-22T03:49:50;20.60;;;14.32;;
32399;SDS011;45045;45.440;9.178;2023-11-22T03:52:15;22.48;;;15.23;;
32399;SDS011;45045;45.440;9.178;2023-11-22T03:54:41;21.70;;;15.73;;
32399;SDS011;45045;45.440;9.178;2023-11-22T03:57:07;23.55;;;15.98;;
32399;SDS011;45045;45.440;9.178;2023-11-22T03:59:34;25.27;;;16.73;;
32399;SDS011;45045;45.440;9.178;2023-11-22T04:02:00;24.55;;;16.83;;
32399;SDS011;45045;45.440;9.178;2023-11-22T04:04:25;24.55;;;17.02;;
32399;SDS011;45045;45.440;9.178;2023-11-22T04:06:51;28.65;;;17.63;;
32399;SDS011;45045;45.440;9.178;2023-11-22T04:09:18;23.77;;;18.00;;
32399;SDS011;45045;45.440;9.178;2023-11-22T04:11:45;24.58;;;17.20;;
32399;SDS011;45045;45.440;9.178;2023-11-22T04:14:12;27.10;;;18.23;;
32399;SDS011;45045;45.440;9.178;2023-11-22T04:16:38;23.63;;;18.05;;
32399;SDS011;45045;45.440;9.178;2023-11-22T04:19:03;26.40;;;17.42;;
32399;SDS011;45045;45.440;9.178;2023-11-22T04:21:29;27.00;;;18.50;;
32399;SDS011;45045;45.440;9.178;2023-11-22T04:23:55;26.67;;;18.58;;
32399;SDS011;45045;45.440;9.178;2023-11-22T04:26:21;24.50;;;17.95;;
32399;SDS011;45045;45.440;9.178;2023-11-22T04:28:46;25.48;;;16.90;;
32399;SDS011;45045;45.440;9.178;2023-11-22T04:31:12;26.15;;;18.30;;
32399;SDS011;45045;45.440;9.178;2023-11-22T04:33:38;24.38;;;18.23;;
32399;SDS011;45045;45.440;9.178;2023-11-22T04:36:04;23.75;;;17.00;;
32399;SDS011;45045;45.440;9.178;2023-11-22T04:38:30;24.13;;;17.40;;
32399;SDS011;45045;45.440;9.178;2023-11-22T04:40:55;24.67;;;17.05;;
32399;SDS011;45045;45.440;9.178;2023-11-22T04:43:21;24.90;;;17.27;;
32399;SDS011;45045;45.440;9.178;2023-11-22T04:45:48;23.23;;;16.30;;
32399;SDS011;45045;45.440;9.178;2023-11-22T04:48:15;22.88;;;17.00;;
32399;SDS011;45045;45.440;9.178;2023-11-22T04:50:41;25.30;;;17.42;;
32399;SDS011;45045;45.440;9.178;2023-11-22T04:53:08;24.08;;;16.83;;
32399;SDS011;45045;45.440;9.178;2023-11-22T04:55:35;26.85;;;17.30;;
32399;SDS011;45045;45.440;9.178;2023-11-22T04:58:00;26.25;;;17.67;;
32399;SDS011;45045;45.440;9.178;2023-11-22T05:00:26;25.15;;;16.20;;
32399;SDS011;45045;45.440;9.178;2023-11-22T05:02:52;23.15;;;16.40;;
32399;SDS011;45045;45.440;9.178;2023-11-22T05:05:19;27.77;;;17.33;;
32399;SDS011;45045;45.440;9.178;2023-11-22T05:07:45;23.50;;;17.08;;
32399;SDS011;45045;45.440;9.178;2023-11-22T05:10:10;24.38;;;17.90;;
32399;SDS011;45045;45.440;9.178;2023-11-22T05:12:36;24.13;;;17.58;;
32399;SDS011;45045;45.440;9.178;2023-11-22T05:15:02;24.50;;;15.98;;
32399;SDS011;45045;45.440;9.178;2023-11-22T05:17:28;24.20;;;15.98;;
32399;SDS011;45045;45.440;9.178;2023-11-22T05:19:54;23.75;;;17.25;;
32399;SDS011;45045;45.440;9.178;2023-11-22T05:22:21;23.42;;;17.05;;
32399;SDS011;45045;45.440;9.178;2023-11-22T05:24:47;23.60;;;17.42;;
32399;SDS011;45045;45.440;9.178;2023-11-22T05:27:14;29.23;;;17.40;;
32399;SDS011;45045;45.440;9.178;2023-11-22T05:29:40;25.08;;;16.52;;
32399;SDS011;45045;45.440;9.178;2023-11-22T05:32:05;25.13;;;16.98;;
32399;SDS011;45045;45.440;9.178;2023-11-22T05:34:31;25.08;;;16.85;;
32399;SDS011;45045;45.440;9.178;2023-11-22T05:36:58;23.02;;;16.10;;
32399;SDS011;45045;45.440;9.178;2023-11-22T05:39:24;22.50;;;15.82;;
32399;SDS011;45045;45.440;9.178;2023-11-22T05:41:50;30.85;;;18.98;;
32399;SDS011;45045;45.440;9.178;2023-11-22T05:44:16;27.08;;;18.20;;
32399;SDS011;45045;45.440;9.178;2023-11-22T05:46:42;24.52;;;16.95;;
32399;SDS011;45045;45.440;9.178;2023-11-22T05:49:08;24.52;;;16.52;;
32399;SDS011;45045;45.440;9.178;2023-11-22T05:51:35;26.02;;;17.13;;
32399;SDS011;45045;45.440;9.178;2023-11-22T05:54:02;23.83;;;17.17;;
32399;SDS011;45045;45.440;9.178;2023-11-22T05:56:28;29.77;;;18.20;;
32399;SDS011;45045;45.440;9.178;2023-11-22T05:58:54;23.92;;;16.55;;
32399;SDS011;45045;45.440;9.178;2023-11-22T06:01:19;26.48;;;16.95;;
32399;SDS011;45045;45.440;9.178;2023-11-22T06:03:45;25.90;;;17.73;;
32399;SDS011;45045;45.440;9.178;2023-11-22T06:06:12;24.55;;;16.95;;
32399;SDS011;45045;45.440;9.178;2023-11-22T06:08:39;24.83;;;16.95;;
32399;SDS011;45045;45.440;9.178;2023-11-22T06:11:07;27.80;;;18.10;;
32399;SDS011;45045;45.440;9.178;2023-11-22T06:13:32;27.55;;;18.30;;
32399;SDS011;45045;45.440;9.178;2023-11-22T06:15:58;28.20;;;18.23;;
32399;SDS011;45045;45.440;9.178;2023-11-22T06:18:24;25.08;;;17.38;;
32399;SDS011;45045;45.440;9.178;2023-11-22T06:20:55;32.33;;;17.73;;
32399;SDS011;45045;45.440;9.178;2023-11-22T06:23:21;25.02;;;17.20;;
32399;SDS011;45045;45.440;9.178;2023-11-22T06:25:47;22.67;;;16.90;;
32399;SDS011;45045;45.440;9.178;2023-11-22T06:28:13;24.38;;;16.98;;
32399;SDS011;45045;45.440;9.178;2023-11-22T06:30:39;25.20;;;16.80;;
32399;SDS011;45045;45.440;9.178;2023-11-22T06:33:05;23.08;;;16.50;;
32399;SDS011;45045;45.440;9.178;2023-11-22T06:35:30;21.88;;;16.13;;
32399;SDS011;45045;45.440;9.178;2023-11-22T06:37:56;26.95;;;16.40;;
32399;SDS011;45045;45.440;9.178;2023-11-22T06:40:22;26.65;;;17.67;;
32399;SDS011;45045;45.440;9.178;2023-11-22T06:42:47;25.27;;;16.90;;
32399;SDS011;45045;45.440;9.178;2023-11-22T06:45:13;24.85;;;18.23;;
32399;SDS011;45045;45.440;9.178;2023-11-22T06:47:40;25.02;;;16.77;;
32399;SDS011;45045;45.440;9.178;2023-11-22T06:50:06;23.23;;;16.10;;
32399;SDS011;45045;45.440;9.178;2023-11-22T06:52:40;26.08;;;16.52;;
32399;SDS011;45045;45.440;9.178;2023-11-22T06:55:07;25.45;;;16.25;;
32399;SDS011;45045;45.440;9.178;2023-11-22T06:57:34;25.85;;;17.85;;
32399;SDS011;45045;45.440;9.178;2023-11-22T07:00:00;24.33;;;17.15;;
32399;SDS011;45045;45.440;9.178;2023-11-22T07:02:35;22.98;;;16.52;;
32399;SDS011;45045;45.440;9.178;2023-11-22T07:05:01;24.20;;;16.45;;
32399;SDS011;45045;45.440;9.178;2023-11-22T07:07:34;26.60;;;15.65;;
32399;SDS011;45045;45.440;9.178;2023-11-22T07:10:01;23.17;;;15.43;;
32399;SDS011;45045;45.440;9.178;2023-11-22T07:12:27;21.35;;;15.07;;
32399;SDS011;45045;45.440;9.178;2023-11-22T07:14:54;24.95;;;15.43;;
32399;SDS011;45045;45.440;9.178;2023-11-22T07:17:20;24.05;;;15.10;;
32399;SDS011;45045;45.440;9.178;2023-11-22T07:19:47;23.58;;;14.95;;
32399;SDS011;45045;45.440;9.178;2023-11-22T07:22:16;24.38;;;14.55;;
32399;SDS011;45045;45.440;9.178;2023-11-22T07:24:43;22.33;;;15.05;;
32399;SDS011;45045;45.440;9.178;2023-11-22T07:27:12;20.52;;;13.55;;
32399;SDS011;45045;45.440;9.178;2023-11-22T07:29:41;21.90;;;13.77;;
32399;SDS011;45045;45.440;9.178;2023-11-22T07:32:08;20.67;;;14.88;;
32399;SDS011;45045;45.440;9.178;2023-11-22T07:34:35;23.05;;;14.50;;
32399;SDS011;45045;45.440;9.178;2023-11-22T07:37:02;24.08;;;14.25;;
32399;SDS011;45045;45.440;9.178;2023-11-22T07:39:28;24.88;;;14.02;;
32399;SDS011;45045;45.440;9.178;2023-11-22T07:41:57;19.63;;;13.07;;
32399;SDS011;45045;45.440;9.178;2023-11-22T07:44:22;21.52;;;13.23;;
32399;SDS011;45045;45.440;9.178;2023-11-22T07:46:51;21.33;;;13.63;;
32399;SDS011;45045;45.440;9.178;2023-11-22T07:49:19;22.20;;;13.30;;
32399;SDS011;45045;45.440;9.178;2023-11-22T07:51:46;20.45;;;12.73;;
32399;SDS011;45045;45.440;9.178;2023-11-22T07:54:12;24.90;;;15.85;;
32399;SDS011;45045;45.440;9.178;2023-11-22T07:56:41;20.98;;;13.63;;
32399;SDS011;45045;45.440;9.178;2023-11-22T07:59:11;21.15;;;13.23;;
32399;SDS011;45045;45.440;9.178;2023-11-22T08:01:37;19.95;;;13.18;;
32399;SDS011;45045;45.440;9.178;2023-11-22T08:04:03;20.80;;;12.73;;
32399;SDS011;45045;45.440;9.178;2023-11-22T08:06:30;20.58;;;11.90;;
32399;SDS011;45045;45.440;9.178;2023-11-22T08:08:56;21.33;;;12.82;;
32399;SDS011;45045;45.440;9.178;2023-11-22T08:11:26;22.98;;;12.98;;
32399;SDS011;45045;45.440;9.178;2023-11-22T08:13:52;20.35;;;12.82;;
32399;SDS011;45045;45.440;9.178;2023-11-22T08:16:20;20.65;;;13.15;;
32399;SDS011;45045;45.440;9.178;2023-11-22T08:18:45;22.70;;;13.77;;
32399;SDS011;45045;45.440;9.178;2023-11-22T08:21:11;26.27;;;17.00;;
32399;SDS011;45045;45.440;9.178;2023-11-22T08:23:37;26.67;;;14.90;;
32399;SDS011;45045;45.440;9.178;2023-11-22T08:26:03;21.27;;;12.95;;
32399;SDS011;45045;45.440;9.178;2023-11-22T08:28:29;20.85;;;11.98;;
32399;SDS011;45045;45.440;9.178;2023-11-22T08:30:55;20.67;;;11.80;;
32399;SDS011;45045;45.440;9.178;2023-11-22T08:33:21;18.10;;;11.50;;
32399;SDS011;45045;45.440;9.178;2023-11-22T08:35:47;18.67;;;10.73;;
32399;SDS011;45045;45.440;9.178;2023-11-22T08:38:17;18.35;;;10.60;;
32399;SDS011;45045;45.440;9.178;2023-11-22T08:40:44;15.38;;;9.73;;
32399;SDS011;45045;45.440;9.178;2023-11-22T08:43:10;18.35;;;9.95;;
32399;SDS011;45045;45.440;9.178;2023-11-22T08:45:35;22.25;;;12.50;;
32399;SDS011;45045;45.440;9.178;2023-11-22T08:48:01;18.40;;;10.02;;
32399;SDS011;45045;45.440;9.178;2023-11-22T08:50:28;24.05;;;10.35;;
32399;SDS011;45045;45.440;9.178;2023-11-22T08:52:53;17.52;;;9.20;;
32399;SDS011;45045;45.440;9.178;2023-11-22T08:55:19;26.20;;;18.30;;
32399;SDS011;45045;45.440;9.178;2023-11-22T08:57:49;24.52;;;15.68;;
32399;SDS011;45045;45.440;9.178;2023-11-22T09:00:17;21.23;;;9.32;;
32399;SDS011;45045;45.440;9.178;2023-11-22T09:02:50;16.10;;;9.27;;
32399;SDS011;45045;45.440;9.178;2023-11-22T09:05:16;14.60;;;8.65;;
32399;SDS011;45045;45.440;9.178;2023-11-22T09:07:44;15.82;;;8.68;;
32399;SDS011;45045;45.440;9.178;2023-11-22T09:10:10;14.82;;;9.05;;
32399;SDS011;45045;45.440;9.178;2023-11-22T09:12:38;17.13;;;8.65;;
32399;SDS011;45045;45.440;9.178;2023-11-22T09:15:06;17.17;;;10.48;;
32399;SDS011;45045;45.440;9.178;2023-11-22T09:17:36;15.85;;;8.88;;
32399;SDS011;45045;45.440;9.178;2023-11-22T09:20:09;14.93;;;8.98;;
32399;SDS011;45045;45.440;9.178;2023-11-22T09:22:44;13.95;;;8.85;;
32399;SDS011;45045;45.440;9.178;2023-11-22T09:25:16;14.45;;;7.65;;
32399;SDS011;45045;45.440;9.178;2023-11-22T09:27:54;17.23;;;8.77;;
32399;SDS011;45045;45.440;9.178;2023-11-22T09:30:24;11.97;;;8.03;;
32399;SDS011;45045;45.440;9.178;2023-11-22T09:35:29;14.98;;;8.23;;
32399;SDS011;45045;45.440;9.178;2023-11-22T09:37:56;12.40;;;8.45;;
32399;SDS011;45045;45.440;9.178;2023-11-22T09:40:23;19.17;;;8.95;;
32399;SDS011;45045;45.440;9.178;2023-11-22T09:42:49;20.63;;;11.82;;
32399;SDS011;45045;45.440;9.178;2023-11-22T09:45:20;20.60;;;10.18;;
32399;SDS011;45045;45.440;9.178;2023-11-22T09:47:46;19.75;;;12.23;;
32399;SDS011;45045;45.440;9.178;2023-11-22T09:50:19;15.73;;;9.63;;
32399;SDS011;45045;45.440;9.178;2023-11-22T09:52:52;18.15;;;11.55;;
32399;SDS011;45045;45.440;9.178;2023-11-22T09:55:22;14.70;;;8.18;;
32399;SDS011;45045;45.440;9.178;2023-11-22T09:57:53;14.40;;;8.43;;
32399;SDS011;45045;45.440;9.178;2023-11-22T10:00:20;16.83;;;8.18;;
32399;SDS011;45045;45.440;9.178;2023-11-22T10:02:47;10.95;;;7.50;;
32399;SDS011;45045;45.440;9.178;2023-11-22T10:05:14;13.82;;;8.18;;
32399;SDS011;45045;45.440;9.178;2023-11-22T10:07:39;10.55;;;6.82;;
32399;SDS011;45045;45.440;9.178;2023-11-22T10:10:05;13.63;;;7.25;;
32399;SDS011;45045;45.440;9.178;2023-11-22T10:12:32;14.65;;;7.00;;
32399;SDS011;45045;45.440;9.178;2023-11-22T10:15:11;11.57;;;6.93;;
32399;SDS011;45045;45.440;9.178;2023-11-22T10:17:38;11.05;;;6.75;;
32399;SDS011;45045;45.440;9.178;2023-11-22T10:20:04;15.30;;;7.38;;
32399;SDS011;45045;45.440;9.178;2023-11-22T10:22:43;15.45;;;7.55;;
32399;SDS011;45045;45.440;9.178;2023-11-22T10:25:10;8.65;;;6.03;;
32399;SDS011;45045;45.440;9.178;2023-11-22T10:27:38;10.43;;;4.70;;
32399;SDS011;45045;45.440;9.178;2023-11-22T10:30:05;9.52;;;3.30;;
32399;SDS011;45045;45.440;9.178;2023-11-22T10:32:36;9.65;;;4.80;;
32399;SDS011;45045;45.440;9.178;2023-11-22T10:35:04;7.18;;;3.85;;
32399;SDS011;45045;45.440;9.178;2023-11-22T10:37:31;9.80;;;5.65;;
32399;SDS011;45045;45.440;9.178;2023-11-22T10:39:57;11.65;;;4.93;;
32399;SDS011;45045;45.440;9.178;2023-11-22T10:42:23;12.07;;;4.80;;
32399;SDS011;45045;45.440;9.178;2023-11-22T10:44:51;6.30;;;3.92;;
32399;SDS011;45045;45.440;9.178;2023-11-22T10:47:24;12.85;;;4.68;;
32399;SDS011;45045;45.440;9.178;2023-11-22T10:49:52;11.57;;;5.90;;
32399;SDS011;45045;45.440;9.178;2023-11-22T10:52:18;9.40;;;4.60;;
32399;SDS011;45045;45.440;9.178;2023-11-22T10:54:50;8.98;;;4.70;;
32399;SDS011;45045;45.440;9.178;2023-11-22T10:57:26;13.15;;;7.80;;
32399;SDS011;45045;45.440;9.178;2023-11-22T10:59:57;10.95;;;7.32;;
32399;SDS011;45045;45.440;9.178;2023-11-22T11:02:30;7.22;;;2.92;;
32399;SDS011;45045;45.440;9.178;2023-11-22T11:05:02;13.25;;;9.43;;
32399;SDS011;45045;45.440;9.178;2023-11-22T11:07:37;12.95;;;7.93;;
32399;SDS011;45045;45.440;9.178;2023-11-22T11:10:07;12.15;;;8.15;;
32399;SDS011;45045;45.440;9.178;2023-11-22T11:12:33;7.68;;;3.58;;
32399;SDS011;45045;45.440;9.178;2023-11-22T11:14:58;8.20;;;3.85;;
32399;SDS011;45045;45.440;9.178;2023-11-22T11:17:25;9.70;;;4.30;;
32399;SDS011;45045;45.440;9.178;2023-11-22T11:19:51;9.63;;;3.67;;
32399;SDS011;45045;45.440;9.178;2023-11-22T11:22:16;6.75;;;3.78;;
32399;SDS011;45045;45.440;9.178;2023-11-22T11:24:45;7.28;;;4.00;;
32399;SDS011;45045;45.440;9.178;2023-11-22T11:27:13;7.93;;;4.32;;
32399;SDS011;45045;45.440;9.178;2023-11-22T11:29:40;10.23;;;4.53;;
32399;SDS011;45045;45.440;9.178;2023-11-22T11:35:00;9.18;;;4.40;;
32399;SDS011;45045;45.440;9.178;2023-11-22T11:37:31;7.22;;;4.30;;
32399;SDS011;45045;45.440;9.178;2023-11-22T11:39:58;8.13;;;4.05;;
32399;SDS011;45045;45.440;9.178;2023-11-22T11:42:24;7.93;;;3.75;;
32399;SDS011;45045;45.440;9.178;2023-11-22T11:47:24;6.15;;;3.50;;
32399;SDS011;45045;45.440;9.178;2023-11-22T11:49:50;7.40;;;3.92;;
32399;SDS011;45045;45.440;9.178;2023-11-22T11:52:15;9.32;;;3.75;;
32399;SDS011;45045;45.440;9.178;2023-11-22T11:54:41;8.77;;;4.28;;
32399;SDS011;45045;45.440;9.178;2023-11-22T11:57:07;5.35;;;3.30;;
32399;SDS011;45045;45.440;9.178;2023-11-22T11:59:35;6.10;;;2.60;;
32399;SDS011;45045;45.440;9.178;2023-11-22T12:02:01;7.40;;;4.53;;
32399;SDS011;45045;45.440;9.178;2023-11-22T12:04:30;5.97;;;3.30;;
32399;SDS011;45045;45.440;9.178;2023-11-22T12:06:57;7.93;;;3.47;;
32399;SDS011;45045;45.440;9.178;2023-11-22T12:09:23;6.05;;;3.50;;
32399;SDS011;45045;45.440;9.178;2023-11-22T12:11:54;6.80;;;3.47;;
32399;SDS011;45045;45.440;9.178;2023-11-22T12:14:20;6.60;;;3.75;;
32399;SDS011;45045;45.440;9.178;2023-11-22T12:16:50;5.97;;;3.50;;
32399;SDS011;45045;45.440;9.178;2023-11-22T12:19:22;7.50;;;3.95;;
32399;SDS011;45045;45.440;9.178;2023-11-22T12:21:49;7.20;;;3.78;;
32399;SDS011;45045;45.440;9.178;2023-11-22T12:24:15;6.38;;;3.47;;
32399;SDS011;45045;45.440;9.178;2023-11-22T12:26:44;6.63;;;3.80;;
32399;SDS011;45045;45.440;9.178;2023-11-22T12:29:13;8.35;;;3.83;;
32399;SDS011;45045;45.440;9.178;2023-11-22T12:31:49;7.53;;;4.00;;
32399;SDS011;45045;45.440;9.178;2023-11-22T12:34:20;9.05;;;3.80;;
32399;SDS011;45045;45.440;9.178;2023-11-22T12:36:47;6.75;;;3.50;;
32399;SDS011;45045;45.440;9.178;2023-11-22T12:39:13;13.02;;;6.50;;
32399;SDS011;45045;45.440;9.178;2023-11-22T12:41:45;6.88;;;2.50;;
32399;SDS011;45045;45.440;9.178;2023-11-22T12:44:15;4.50;;;2.33;;
32399;SDS011;45045;45.440;9.178;2023-11-22T12:46:51;5.38;;;3.00;;
32399;SDS011;45045;45.440;9.178;2023-11-22T12:49:24;6.70;;;2.92;;
32399;SDS011;45045;45.440;9.178;2023-11-22T12:51:52;7.43;;;2.70;;
32399;SDS011;45045;45.440;9.178;2023-11-22T12:54:18;6.32;;;3.03;;
32399;SDS011;45045;45.440;9.178;2023-11-22T12:56:51;4.85;;;2.88;;
32399;SDS011;45045;45.440;9.178;2023-11-22T12:59:24;6.82;;;2.97;;
32399;SDS011;45045;45.440;9.178;2023-11-22T13:01:53;9.05;;;3.15;;
32399;SDS011;45045;45.440;9.178;2023-11-22T13:04:19;6.40;;;3.17;;
32399;SDS011;45045;45.440;9.178;2023-11-22T13:06:45;4.10;;;2.60;;
32399;SDS011;45045;45.440;9.178;2023-11-22T13:09:11;4.80;;;2.65;;
32399;SDS011;45045;45.440;9.178;2023-11-22T13:11:43;6.47;;;2.92;;
32399;SDS011;45045;45.440;9.178;2023-11-22T13:14:09;5.38;;;2.17;;
32399;SDS011;45045;45.440;9.178;2023-11-22T13:16:35;8.07;;;4.28;;
32399;SDS011;45045;45.440;9.178;2023-11-22T13:19:03;6.97;;;3.20;;
32399;SDS011;45045;45.440;9.178;2023-11-22T13:21:29;10.30;;;3.60;;
32399;SDS011;45045;45.440;9.178;2023-11-22T13:23:56;6.15;;;2.75;;
32399;SDS011;45045;45.440;9.178;2023-11-22T13:26:24;6.35;;;2.50;;
32399;SDS011;45045;45.440;9.178;2023-11-22T13:28:50;7.28;;;3.85;;
32399;SDS011;45045;45.440;9.178;2023-11-22T13:31:17;5.72;;;2.75;;
32399;SDS011;45045;45.440;9.178;2023-11-22T13:33:43;5.00;;;2.50;;
32399;SDS011;45045;45.440;9.178;2023-11-22T13:36:09;4.93;;;2.20;;
32399;SDS011;45045;45.440;9.178;2023-11-22T13:38:36;3.72;;;2.10;;
32399;SDS011;45045;45.440;9.178;2023-11-22T13:41:03;12.60;;;8.93;;
32399;SDS011;45045;45.440;9.178;2023-11-22T13:43:29;5.28;;;2.38;;
32399;SDS011;45045;45.440;9.178;2023-11-22T13:45:54;7.05;;;3.03;;
32399;SDS011;45045;45.440;9.178;2023-11-22T13:48:20;3.80;;;1.60;;
32399;SDS011;45045;45.440;9.178;2023-11-22T13:50:48;6.00;;;1.67;;
32399;SDS011;45045;45.440;9.178;2023-11-22T13:53:14;5.35;;;1.92;;
32399;SDS011;45045;45.440;9.178;2023-11-22T13:55:42;6.05;;;2.00;;
32399;SDS011;45045;45.440;9.178;2023-11-22T13:58:08;4.57;;;1.77;;
32399;SDS011;45045;45.440;9.178;2023-11-22T14:00:34;5.13;;;2.50;;
32399;SDS011;45045;45.440;9.178;2023-11-22T14:03:00;5.15;;;2.13;;
32399;SDS011;45045;45.440;9.178;2023-11-22T14:05:34;5.63;;;2.70;;
32399;SDS011;45045;45.440;9.178;2023-11-22T14:08:02;5.88;;;2.60;;
32399;SDS011;45045;45.440;9.178;2023-11-22T14:10:29;6.70;;;3.13;;
32399;SDS011;45045;45.440;9.178;2023-11-22T14:12:55;6.55;;;2.45;;
32399;SDS011;45045;45.440;9.178;2023-11-22T14:15:25;4.65;;;2.20;;
32399;SDS011;45045;45.440;9.178;2023-11-22T14:17:53;6.03;;;2.42;;
32399;SDS011;45045;45.440;9.178;2023-11-22T14:20:19;4.60;;;2.33;;
32399;SDS011;45045;45.440;9.178;2023-11-22T14:22:46;6.10;;;2.58;;
32399;SDS011;45045;45.440;9.178;2023-11-22T14:25:13;4.85;;;2.50;;
32399;SDS011;45045;45.440;9.178;2023-11-22T14:27:44;5.28;;;2.53;;
32399;SDS011;45045;45.440;9.178;2023-11-22T14:30:12;5.63;;;2.75;;
32399;SDS011;45045;45.440;9.178;2023-11-22T14:32:42;4.88;;;2.70;;
32399;SDS011;45045;45.440;9.178;2023-11-22T14:35:08;6.20;;;2.85;;